createdAt,value
2018-03-31T00:01:03.531Z,13.20
2018-03-31T00:03:30.560Z,12.95
2018-03-31T00:05:57.553Z,12.40
2018-03-31T00:08:24.607Z,14.25
2018-03-31T00:10:51.701Z,12.32
2018-03-31T00:13:18.776Z,12.23
2018-03-31T00:15:45.861Z,12.20
2018-03-31T00:18:12.898Z,12.90
2018-03-31T00:20:39.925Z,11.88
2018-03-31T00:23:06.932Z,13.13
2018-03-31T00:25:33.966Z,13.27
2018-03-31T00:28:00.983Z,10.80
2018-03-31T00:30:27.991Z,11.70
2018-03-31T00:32:55.797Z,12.32
2018-03-31T00:35:22.815Z,11.85
2018-03-31T00:37:49.811Z,13.20
2018-03-31T00:40:17.731Z,12.00
2018-03-31T00:42:44.727Z,11.75
2018-03-31T00:45:11.789Z,11.35
2018-03-31T00:47:38.812Z,11.60
2018-03-31T00:50:05.845Z,12.23
2018-03-31T00:52:32.850Z,11.43
2018-03-31T00:54:59.826Z,11.73
2018-03-31T00:57:26.843Z,12.10
2018-03-31T00:59:53.855Z,12.88
2018-03-31T01:02:20.856Z,11.20
2018-03-31T01:04:47.880Z,10.68
2018-03-31T01:07:14.935Z,11.65
2018-03-31T01:09:41.935Z,11.12
2018-03-31T01:12:08.912Z,11.63
2018-03-31T01:14:35.965Z,10.90
2018-03-31T01:17:03.076Z,11.05
2018-03-31T01:19:30.098Z,10.18
2018-03-31T01:21:57.094Z,10.98
2018-03-31T01:24:24.148Z,9.73
2018-03-31T01:26:51.266Z,10.73
2018-03-31T01:29:18.306Z,11.15
2018-03-31T01:31:45.279Z,10.52
2018-03-31T01:34:13.058Z,10.98
2018-03-31T01:36:40.813Z,12.15
2018-03-31T01:39:07.876Z,10.60
2018-03-31T01:41:34.898Z,11.07
2018-03-31T01:44:01.948Z,10.20
2018-03-31T01:46:29.787Z,10.90
2018-03-31T01:48:56.771Z,11.18
2018-03-31T01:51:23.827Z,10.55
2018-03-31T01:53:51.726Z,10.88
2018-03-31T01:56:18.871Z,9.35
2018-03-31T01:58:45.884Z,11.27
2018-03-31T02:01:12.912Z,10.57
2018-03-31T02:03:40.674Z,9.95
2018-03-31T02:06:08.458Z,10.65
2018-03-31T02:08:35.468Z,11.07
2018-03-31T02:11:02.493Z,10.13
2018-03-31T02:13:29.485Z,10.95
2018-03-31T02:15:57.245Z,10.15
2018-03-31T02:18:25.060Z,10.50
2018-03-31T02:20:52.092Z,10.73
2018-03-31T02:23:19.108Z,10.02
2018-03-31T02:25:46.879Z,10.68
2018-03-31T02:28:13.938Z,9.45
2018-03-31T02:30:41.018Z,9.43
2018-03-31T02:33:08.042Z,9.63
2018-03-31T02:35:35.070Z,12.43
2018-03-31T02:38:02.105Z,9.25
2018-03-31T02:40:29.207Z,10.73
2018-03-31T02:42:56.232Z,10.40
2018-03-31T02:45:23.276Z,10.45
2018-03-31T02:47:50.299Z,10.52
2018-03-31T02:50:17.319Z,10.27
2018-03-31T02:52:44.315Z,10.52
2018-03-31T02:55:11.323Z,9.00
2018-03-31T02:57:38.286Z,9.77
2018-03-31T03:00:05.344Z,10.20
2018-03-31T03:02:33.088Z,9.88
2018-03-31T03:05:00.860Z,10.85
2018-03-31T03:07:28.613Z,10.32
2018-03-31T03:09:55.626Z,11.02
2018-03-31T03:12:22.644Z,10.82
2018-03-31T03:14:49.631Z,10.25
2018-03-31T03:17:16.622Z,9.98
2018-03-31T03:19:43.654Z,10.98
2018-03-31T03:22:11.403Z,11.07
2018-03-31T03:24:38.375Z,11.35
2018-03-31T03:27:05.375Z,11.25
2018-03-31T03:29:32.375Z,10.07
2018-03-31T03:31:59.386Z,12.02
2018-03-31T03:34:26.370Z,10.40
2018-03-31T03:36:53.397Z,10.48
2018-03-31T03:39:21.151Z,11.20
2018-03-31T03:41:48.212Z,11.50
2018-03-31T03:44:15.966Z,11.63
2018-03-31T03:46:42.977Z,11.48
2018-03-31T03:49:09.952Z,10.75
2018-03-31T03:51:36.930Z,12.52
2018-03-31T03:54:03.942Z,10.27
2018-03-31T03:56:30.914Z,10.82
2018-03-31T03:58:57.984Z,11.25
2018-03-31T04:01:24.932Z,11.20
2018-03-31T04:03:51.952Z,11.85
2018-03-31T04:06:18.986Z,11.95
2018-03-31T04:08:46.746Z,10.18
2018-03-31T04:11:14.517Z,12.27
2018-03-31T04:13:42.298Z,10.95
2018-03-31T04:16:09.313Z,11.25
2018-03-31T04:18:37.991Z,12.77
2018-03-31T04:21:04.994Z,10.75
2018-03-31T04:23:31.978Z,11.70
2018-03-31T04:25:58.950Z,10.85
2018-03-31T04:28:25.962Z,10.82
2018-03-31T04:30:52.985Z,11.98
2018-03-31T04:33:19.987Z,11.80
2018-03-31T04:35:46.995Z,11.15
2018-03-31T04:38:13.970Z,10.73
2018-03-31T04:40:41.858Z,12.43
2018-03-31T04:43:14.028Z,11.95
2018-03-31T04:45:41.061Z,11.18
2018-03-31T04:48:08.067Z,11.20
2018-03-31T04:50:35.117Z,11.85
2018-03-31T04:53:02.195Z,11.45
2018-03-31T04:55:29.288Z,11.20
2018-03-31T04:57:56.270Z,12.20
2018-03-31T05:00:25.088Z,11.88
2018-03-31T05:02:52.102Z,11.75
2018-03-31T05:05:19.270Z,12.80
2018-03-31T05:07:47.155Z,12.07
2018-03-31T05:10:14.182Z,11.93
2018-03-31T05:12:41.974Z,12.68
2018-03-31T05:15:09.004Z,12.60
2018-03-31T05:17:36.062Z,10.90
2018-03-31T05:20:03.115Z,11.77
2018-03-31T05:22:30.138Z,11.63
2018-03-31T05:24:57.918Z,13.05
2018-03-31T05:27:24.947Z,12.00
2018-03-31T05:29:52.717Z,11.60
2018-03-31T05:32:20.467Z,11.60
2018-03-31T05:34:47.482Z,11.35
2018-03-31T05:37:14.699Z,11.50
2018-03-31T05:39:41.870Z,11.55
2018-03-31T05:42:08.925Z,11.30
2018-03-31T05:44:35.940Z,12.15
2018-03-31T05:47:03.882Z,12.32
2018-03-31T05:49:30.850Z,12.40
2018-03-31T05:51:57.853Z,12.43
2018-03-31T05:54:24.822Z,12.45
2018-03-31T05:56:51.813Z,12.75
2018-03-31T05:59:18.812Z,12.68
2018-03-31T06:01:45.823Z,12.77
2018-03-31T06:04:12.864Z,10.82
2018-03-31T06:06:39.877Z,11.77
2018-03-31T06:09:06.877Z,12.40
2018-03-31T06:11:33.885Z,14.38
2018-03-31T06:14:00.890Z,11.32
2018-03-31T06:16:28.654Z,13.35
2018-03-31T06:18:55.672Z,12.63
2018-03-31T06:21:22.668Z,11.88
2018-03-31T06:23:49.663Z,12.65
2018-03-31T06:26:16.646Z,12.55
2018-03-31T06:28:43.716Z,11.75
2018-03-31T06:31:10.722Z,11.23
2018-03-31T06:33:37.695Z,12.88
2018-03-31T06:36:04.712Z,11.48
2018-03-31T06:38:31.679Z,13.40
2018-03-31T06:40:59.430Z,11.40
2018-03-31T06:43:27.196Z,10.75
2018-03-31T06:45:54.240Z,11.10
2018-03-31T06:48:22.054Z,12.27
2018-03-31T06:50:49.050Z,11.32
2018-03-31T06:53:16.051Z,11.15
2018-03-31T06:55:43.035Z,11.10
2018-03-31T06:58:10.047Z,12.10
2018-03-31T07:00:37.018Z,12.57
2018-03-31T07:03:03.991Z,12.25
2018-03-31T07:05:31.799Z,11.73
2018-03-31T07:07:58.834Z,10.88
2018-03-31T07:10:25.831Z,11.77
2018-03-31T07:12:52.839Z,11.32
2018-03-31T07:15:19.844Z,11.07
2018-03-31T07:17:46.903Z,11.23
2018-03-31T07:20:13.930Z,11.80
2018-03-31T07:22:41.682Z,12.10
2018-03-31T07:25:08.689Z,11.43
2018-03-31T07:27:35.692Z,11.55
2018-03-31T07:30:02.757Z,11.70
2018-03-31T07:32:29.782Z,12.02
2018-03-31T07:34:56.795Z,11.98
2018-03-31T07:37:23.901Z,11.50
2018-03-31T07:39:50.891Z,12.30
2018-03-31T07:42:17.903Z,10.52
2018-03-31T07:44:44.963Z,12.40
2018-03-31T07:47:11.966Z,11.50
2018-03-31T07:49:39.715Z,11.70
2018-03-31T07:52:06.826Z,11.82
2018-03-31T07:54:33.818Z,11.00
2018-03-31T07:57:01.729Z,10.73
2018-03-31T07:59:28.735Z,12.10
2018-03-31T08:01:56.521Z,11.43
2018-03-31T08:04:23.574Z,12.07
2018-03-31T08:06:50.607Z,11.48
2018-03-31T08:09:17.634Z,12.70
2018-03-31T08:11:44.697Z,11.35
2018-03-31T08:14:11.782Z,12.45
2018-03-31T08:16:38.871Z,11.73
2018-03-31T08:19:06.631Z,11.00
2018-03-31T08:21:33.645Z,11.60
2018-03-31T08:24:00.651Z,10.43
2018-03-31T08:26:28.398Z,10.60
2018-03-31T08:28:55.429Z,11.18
2018-03-31T08:31:22.452Z,10.95
2018-03-31T08:33:49.497Z,11.30
2018-03-31T08:36:16.515Z,10.65
2018-03-31T08:38:43.655Z,9.80
2018-03-31T08:41:10.679Z,11.70
2018-03-31T08:43:37.788Z,11.00
2018-03-31T08:46:04.795Z,10.65
2018-03-31T08:48:31.840Z,12.15
2018-03-31T08:50:58.854Z,11.00
2018-03-31T08:53:25.997Z,10.20
2018-03-31T08:55:52.966Z,10.70
2018-03-31T08:58:20.039Z,10.13
2018-03-31T09:00:47.061Z,11.25
2018-03-31T09:03:14.130Z,10.70
2018-03-31T09:05:41.137Z,11.65
2018-03-31T09:08:08.109Z,10.15
2018-03-31T09:10:35.154Z,10.65
2018-03-31T09:13:02.183Z,10.98
2018-03-31T09:15:29.169Z,11.05
2018-03-31T09:17:56.167Z,10.57
2018-03-31T09:20:23.154Z,11.65
2018-03-31T09:22:50.146Z,12.25
2018-03-31T09:25:17.123Z,12.82
2018-03-31T09:27:44.882Z,12.10
2018-03-31T09:30:11.874Z,13.98
2018-03-31T09:32:38.874Z,12.70
2018-03-31T09:35:06.612Z,12.75
2018-03-31T09:37:33.632Z,12.73
2018-03-31T09:40:00.700Z,13.62
2018-03-31T09:42:27.666Z,13.55
2018-03-31T09:44:55.003Z,13.27
2018-03-31T09:47:22.233Z,11.65
2018-03-31T09:49:49.400Z,12.60
2018-03-31T09:52:16.558Z,12.60
2018-03-31T09:54:43.675Z,13.38
2018-03-31T09:57:10.687Z,13.60
2018-03-31T09:59:37.767Z,14.35
2018-03-31T10:02:04.822Z,15.27
2018-03-31T10:04:33.340Z,15.50
2018-03-31T10:07:00.447Z,14.98
2018-03-31T10:09:27.860Z,15.23
2018-03-31T10:11:55.864Z,13.90
2018-03-31T10:14:22.937Z,16.85
2018-03-31T10:16:50.039Z,16.10
2018-03-31T10:19:17.069Z,16.10
2018-03-31T10:21:44.043Z,16.67
2018-03-31T10:24:11.263Z,18.25
2018-03-31T10:26:38.449Z,16.45
2018-03-31T10:29:05.684Z,16.05
2018-03-31T10:31:32.720Z,17.40
2018-03-31T10:34:00.501Z,19.62
2018-03-31T10:36:27.545Z,17.35
2018-03-31T10:38:54.559Z,16.10
2018-03-31T10:41:21.603Z,16.58
2018-03-31T10:43:48.616Z,15.73
2018-03-31T10:46:15.715Z,15.02
2018-03-31T10:48:43.676Z,15.27
2018-03-31T10:51:11.855Z,18.23
2018-03-31T10:53:38.909Z,16.02
2018-03-31T10:56:06.903Z,15.70
2018-03-31T10:58:34.085Z,16.95
2018-03-31T11:01:01.230Z,14.93
2018-03-31T11:03:28.282Z,17.05
2018-03-31T11:05:56.212Z,19.02
2018-03-31T11:08:23.456Z,17.35
2018-03-31T11:10:51.009Z,18.60
2018-03-31T11:13:18.374Z,18.48
2018-03-31T11:15:46.444Z,19.15
2018-03-31T11:18:14.214Z,18.45
2018-03-31T11:20:41.827Z,18.10
2018-03-31T11:23:08.827Z,17.20
2018-03-31T11:25:35.935Z,17.12
2018-03-31T11:28:02.999Z,18.25
2018-03-31T11:30:30.941Z,16.95
2018-03-31T11:33:03.087Z,18.75
2018-03-31T11:35:30.778Z,17.30
2018-03-31T11:37:58.601Z,17.10
2018-03-31T11:40:26.158Z,17.17
2018-03-31T11:42:53.633Z,19.73
2018-03-31T11:45:24.994Z,18.15
2018-03-31T11:47:52.097Z,18.27
2018-03-31T11:50:21.124Z,20.15
2018-03-31T11:52:48.133Z,21.25
2018-03-31T11:55:15.203Z,17.52
2018-03-31T11:57:42.212Z,18.87
2018-03-31T12:00:09.344Z,19.35
2018-03-31T12:02:36.652Z,18.37
2018-03-31T12:05:03.695Z,18.40
2018-03-31T12:07:30.854Z,17.83
2018-03-31T12:09:57.923Z,18.62
2018-03-31T12:12:25.118Z,18.20
2018-03-31T12:14:52.232Z,18.73
2018-03-31T12:17:19.317Z,17.35
2018-03-31T12:19:49.015Z,18.45
2018-03-31T12:22:16.116Z,19.20
2018-03-31T12:24:43.254Z,16.40
2018-03-31T12:27:10.449Z,17.92
2018-03-31T12:32:39.632Z,17.55
2018-03-31T12:35:06.685Z,19.10
2018-03-31T12:37:33.691Z,19.75
2018-03-31T12:40:00.942Z,18.25
2018-03-31T12:42:40.756Z,19.85
2018-03-31T12:45:10.068Z,20.62
2018-03-31T12:47:37.144Z,17.77
2018-03-31T12:50:10.737Z,18.80
2018-03-31T12:52:39.246Z,21.40
2018-03-31T12:55:11.052Z,19.75
2018-03-31T12:57:39.812Z,19.67
2018-03-31T13:00:08.228Z,19.27
2018-03-31T13:02:35.276Z,20.62
2018-03-31T13:05:02.309Z,22.45
2018-03-31T13:07:29.517Z,23.62
2018-03-31T13:09:56.554Z,22.83
2018-03-31T13:12:29.775Z,23.23
2018-03-31T13:17:48.527Z,23.12
2018-03-31T13:20:15.937Z,23.30
2018-03-31T13:22:42.998Z,22.35
2018-03-31T13:25:11.631Z,24.40
2018-03-31T13:27:40.804Z,22.17
2018-03-31T13:30:08.011Z,22.52
2018-03-31T13:32:35.223Z,22.13
2018-03-31T13:35:02.335Z,21.55
2018-03-31T13:37:29.360Z,20.08
2018-03-31T13:39:56.362Z,18.55
2018-03-31T13:42:23.352Z,19.30
2018-03-31T13:44:50.376Z,19.25
2018-03-31T13:47:17.366Z,18.58
2018-03-31T13:49:44.365Z,20.45
2018-03-31T13:52:11.527Z,18.10
2018-03-31T13:54:38.565Z,16.27
2018-03-31T13:57:05.741Z,15.95
2018-03-31T13:59:32.974Z,20.17
2018-03-31T14:02:00.097Z,16.80
2018-03-31T14:04:27.150Z,16.67
2018-03-31T14:06:54.423Z,20.00
2018-03-31T14:09:22.241Z,21.12
2018-03-31T14:11:49.270Z,19.60
2018-03-31T14:14:16.436Z,22.15
2018-03-31T14:16:43.598Z,20.80
2018-03-31T14:19:11.506Z,19.35
2018-03-31T14:21:39.479Z,19.95
2018-03-31T14:24:07.373Z,20.92
2018-03-31T14:26:34.412Z,20.02
2018-03-31T14:29:02.286Z,19.92
2018-03-31T14:31:31.074Z,21.30
2018-03-31T14:33:59.113Z,20.35
2018-03-31T14:36:26.259Z,20.15
2018-03-31T14:38:53.729Z,18.12
2018-03-31T14:41:22.409Z,18.60
2018-03-31T14:43:49.406Z,20.92
2018-03-31T14:46:16.394Z,20.35
2018-03-31T14:48:43.374Z,20.95
2018-03-31T14:51:11.182Z,26.10
2018-03-31T14:53:38.344Z,23.75
2018-03-31T14:56:06.317Z,25.05
2018-03-31T14:58:35.961Z,21.40
2018-03-31T15:01:03.136Z,23.10
2018-03-31T15:03:30.237Z,24.05
2018-03-31T15:05:57.850Z,21.48
2018-03-31T15:08:24.983Z,22.17
2018-03-31T15:10:52.050Z,21.35
2018-03-31T15:13:19.103Z,21.05
2018-03-31T15:15:48.481Z,22.00
2018-03-31T15:18:15.559Z,18.40
2018-03-31T15:20:44.584Z,20.52
2018-03-31T15:23:11.661Z,19.05
2018-03-31T15:25:40.168Z,19.08
2018-03-31T15:28:07.480Z,18.95
2018-03-31T15:30:35.660Z,18.33
2018-03-31T15:33:03.759Z,19.40
2018-03-31T15:35:31.699Z,20.70
2018-03-31T15:37:58.813Z,21.87
2018-03-31T15:40:27.699Z,19.70
2018-03-31T15:42:55.817Z,22.67
2018-03-31T15:45:25.381Z,23.20
2018-03-31T15:47:52.715Z,21.05
2018-03-31T15:50:21.213Z,21.95
2018-03-31T15:52:50.628Z,20.35
2018-03-31T15:55:17.879Z,21.48
2018-03-31T15:57:45.124Z,21.42
2018-03-31T16:00:12.620Z,24.80
2018-03-31T16:02:44.433Z,21.65
2018-03-31T16:08:02.086Z,24.42
2018-03-31T16:10:29.246Z,22.48
2018-03-31T16:12:57.048Z,20.40
2018-03-31T16:15:24.867Z,21.05
2018-03-31T16:17:51.936Z,21.95
2018-03-31T16:20:18.975Z,19.05
2018-03-31T16:22:46.783Z,20.95
2018-03-31T16:25:13.796Z,20.88
2018-03-31T16:27:40.824Z,21.42
2018-03-31T16:30:07.894Z,21.20
2018-03-31T16:35:10.706Z,20.12
2018-03-31T16:37:38.122Z,19.65
2018-03-31T16:40:09.550Z,18.73
2018-03-31T16:42:40.211Z,17.37
2018-03-31T16:45:09.233Z,18.15
2018-03-31T16:47:38.708Z,16.87
2018-03-31T16:50:05.844Z,18.23
2018-03-31T16:55:05.565Z,20.30
2018-03-31T16:57:33.382Z,20.67
2018-03-31T17:00:00.420Z,21.95
2018-03-31T17:02:29.052Z,22.65
2018-03-31T17:04:56.380Z,21.05
2018-03-31T17:07:23.740Z,22.60
2018-03-31T17:09:50.991Z,23.02
2018-03-31T17:12:18.054Z,21.58
2018-03-31T17:14:45.200Z,23.48
2018-03-31T17:17:12.435Z,22.02
2018-03-31T17:19:39.728Z,20.80
2018-03-31T17:22:09.403Z,22.58
2018-03-31T17:24:38.808Z,22.10
2018-03-31T17:27:09.620Z,22.27
2018-03-31T17:32:08.951Z,26.12
2018-03-31T17:34:36.033Z,28.38
2018-03-31T17:39:41.564Z,28.15
2018-03-31T17:42:13.316Z,26.73
2018-03-31T17:44:40.529Z,26.15
2018-03-31T17:47:07.697Z,26.77
2018-03-31T17:49:35.175Z,25.45
2018-03-31T17:52:02.464Z,24.50
2018-03-31T17:54:29.473Z,24.52
2018-03-31T17:56:56.689Z,23.05
2018-03-31T17:59:30.763Z,25.95
2018-03-31T18:01:57.860Z,23.00
2018-03-31T18:04:27.861Z,23.05
2018-03-31T18:06:54.974Z,20.25
2018-03-31T18:09:22.155Z,25.02
2018-03-31T18:11:50.849Z,24.42
2018-03-31T18:14:19.616Z,27.80
2018-03-31T18:16:46.888Z,24.37
2018-03-31T18:19:14.201Z,23.75
2018-03-31T18:21:41.362Z,23.75
2018-03-31T18:24:12.305Z,26.20
2018-03-31T18:26:40.414Z,25.15
2018-03-31T18:29:09.191Z,25.50
2018-03-31T18:31:36.344Z,25.85
2018-03-31T18:34:03.594Z,27.52
2018-03-31T18:36:30.734Z,30.05
2018-03-31T18:38:58.569Z,29.87
2018-03-31T18:41:25.734Z,25.98
2018-03-31T18:43:52.798Z,28.08
2018-03-31T18:46:21.312Z,26.60
2018-03-31T18:48:49.308Z,25.20
2018-03-31T18:51:16.450Z,23.15
2018-03-31T18:53:43.597Z,24.25
2018-03-31T18:56:10.655Z,22.77
2018-03-31T18:58:37.712Z,23.00
2018-03-31T19:01:04.898Z,22.02
2018-03-31T19:03:31.995Z,23.95
2018-03-31T19:05:59.163Z,22.50
2018-03-31T19:08:27.724Z,30.80
2018-03-31T19:10:55.092Z,27.62
2018-03-31T19:13:23.938Z,26.85
2018-03-31T19:18:43.882Z,22.10
2018-03-31T19:21:11.163Z,25.67
2018-03-31T19:23:39.549Z,23.60
2018-03-31T19:26:07.381Z,25.08
2018-03-31T19:28:34.574Z,22.60
2018-03-31T19:31:01.784Z,21.98
2018-03-31T19:33:28.820Z,20.25
2018-03-31T19:36:01.409Z,21.70
2018-03-31T19:38:28.729Z,20.80
2018-03-31T19:40:55.815Z,18.23
2018-03-31T19:43:24.588Z,19.50
2018-03-31T19:45:51.925Z,20.90
2018-03-31T19:48:19.089Z,19.05
2018-03-31T19:50:49.436Z,18.65
2018-03-31T19:53:16.619Z,17.77
2018-03-31T19:55:44.394Z,17.98
2018-03-31T19:58:11.474Z,18.10
2018-03-31T20:00:38.687Z,18.42
2018-03-31T20:03:05.766Z,18.00
2018-03-31T20:05:32.915Z,18.58
2018-03-31T20:07:59.966Z,20.08
2018-03-31T20:10:28.140Z,19.08
2018-03-31T20:12:55.275Z,20.42
2018-03-31T20:15:24.120Z,18.95
2018-03-31T20:17:51.212Z,17.48
2018-03-31T20:20:18.585Z,18.70
2018-03-31T20:22:45.688Z,19.70
2018-03-31T20:25:12.789Z,18.00
2018-03-31T20:27:39.826Z,20.90
2018-03-31T20:30:07.011Z,17.00
2018-03-31T20:32:34.127Z,18.80
2018-03-31T20:35:01.127Z,19.35
2018-03-31T20:37:29.165Z,17.85
2018-03-31T20:39:56.230Z,18.55
2018-03-31T20:42:24.015Z,17.50
2018-03-31T20:44:51.952Z,17.05
2018-03-31T20:47:18.944Z,16.20
2018-03-31T20:49:46.197Z,15.10
2018-03-31T20:52:13.286Z,17.00
2018-03-31T20:54:40.297Z,17.40
2018-03-31T20:57:07.326Z,16.40
2018-03-31T20:59:34.732Z,18.35
2018-03-31T21:02:01.823Z,18.30
2018-03-31T21:04:29.635Z,17.40
2018-03-31T21:06:58.455Z,17.05
2018-03-31T21:09:25.488Z,18.87
2018-03-31T21:11:52.520Z,18.70
2018-03-31T21:14:19.602Z,19.15
2018-03-31T21:16:46.835Z,18.00
2018-03-31T21:19:13.835Z,19.50
2018-03-31T21:21:41.627Z,18.77
2018-03-31T21:24:08.630Z,17.85
2018-03-31T21:26:36.565Z,16.95
2018-03-31T21:29:03.754Z,18.08
2018-03-31T21:31:30.755Z,17.30
2018-03-31T21:33:57.797Z,17.98
2018-03-31T21:36:24.826Z,16.75
2018-03-31T21:38:51.853Z,18.65
2018-03-31T21:41:18.889Z,17.45
2018-03-31T21:43:45.959Z,18.10
2018-03-31T21:46:13.045Z,21.05
2018-03-31T21:48:40.036Z,21.87
2018-03-31T21:51:07.031Z,24.67
2018-03-31T21:53:34.026Z,26.48
2018-03-31T21:56:01.032Z,25.30
2018-03-31T21:58:28.027Z,24.02
2018-03-31T22:00:55.194Z,20.65
2018-03-31T22:03:23.315Z,21.37
2018-03-31T22:05:50.388Z,22.40
2018-03-31T22:08:17.394Z,19.98
2018-03-31T22:10:44.414Z,19.20
2018-03-31T22:13:16.992Z,18.12
2018-03-31T22:15:48.916Z,18.73
2018-03-31T22:18:15.926Z,16.92
2018-03-31T22:20:42.939Z,18.98
2018-03-31T22:23:09.943Z,17.48
2018-03-31T22:25:36.946Z,17.52
2018-03-31T22:28:04.290Z,16.62
2018-03-31T22:30:32.149Z,17.05
2018-03-31T22:32:59.143Z,16.02
2018-03-31T22:35:26.194Z,17.40
2018-03-31T22:37:53.429Z,17.10
2018-03-31T22:40:20.444Z,18.73
2018-03-31T22:42:47.449Z,19.10
2018-03-31T22:45:14.463Z,17.85
2018-03-31T22:47:41.440Z,20.17
2018-03-31T22:50:08.458Z,20.73
2018-03-31T22:52:35.531Z,18.87
2018-03-31T22:55:02.578Z,20.40
2018-03-31T22:57:29.583Z,19.35
2018-03-31T22:59:56.606Z,19.10
2018-03-31T23:02:23.680Z,17.92
2018-03-31T23:04:50.694Z,17.58
2018-03-31T23:07:17.678Z,17.10
2018-03-31T23:09:44.679Z,18.08
2018-03-31T23:12:11.759Z,17.40
2018-03-31T23:14:38.742Z,16.80
2018-03-31T23:17:05.795Z,15.65
2018-03-31T23:19:33.571Z,16.77
2018-03-31T23:22:00.611Z,15.73
2018-03-31T23:24:28.429Z,16.27
2018-03-31T23:26:55.407Z,17.35
2018-03-31T23:29:22.435Z,17.35
2018-03-31T23:31:49.434Z,17.12
2018-03-31T23:34:16.440Z,18.87
2018-03-31T23:36:44.215Z,15.82
2018-03-31T23:39:11.232Z,16.87
2018-03-31T23:41:38.213Z,16.77
2018-03-31T23:44:06.058Z,17.17
2018-03-31T23:46:33.063Z,16.77
2018-03-31T23:49:00.055Z,18.37
2018-03-31T23:51:27.059Z,18.95
2018-03-31T23:53:54.171Z,18.05
2018-03-31T23:56:21.211Z,16.65
2018-03-31T23:58:48.176Z,17.27
